createdAt,value
2017-07-21T00:01:49.127Z,21.40
2017-07-21T00:04:18.239Z,21.40
2017-07-21T00:06:47.539Z,21.40
2017-07-21T00:09:16.042Z,21.40
2017-07-21T00:11:44.865Z,21.50
2017-07-21T00:14:13.612Z,21.50
2017-07-21T00:16:42.835Z,21.50
2017-07-21T00:19:11.398Z,21.50
2017-07-21T00:21:40.313Z,21.50
2017-07-21T00:24:08.266Z,21.40
2017-07-21T00:26:36.865Z,21.40
2017-07-21T00:29:06.075Z,21.30
2017-07-21T00:31:35.437Z,21.20
2017-07-21T00:34:04.724Z,21.10
2017-07-21T00:36:33.916Z,21.10
2017-07-21T00:39:01.903Z,21.00
2017-07-21T00:41:31.741Z,21.00
2017-07-21T00:44:00.100Z,21.00
2017-07-21T00:46:29.223Z,21.00
2017-07-21T00:48:57.518Z,21.00
2017-07-21T00:51:26.269Z,21.00
2017-07-21T00:53:54.794Z,21.00
2017-07-21T00:56:23.628Z,21.00
2017-07-21T00:58:52.253Z,21.00
2017-07-21T01:01:20.968Z,21.00
2017-07-21T01:03:49.194Z,21.00
2017-07-21T01:06:18.174Z,20.90
2017-07-21T01:08:46.777Z,20.90
2017-07-21T01:11:15.456Z,20.90
2017-07-21T01:13:44.800Z,20.90
2017-07-21T01:16:13.531Z,20.70
2017-07-21T01:18:42.829Z,20.70
2017-07-21T01:21:11.480Z,20.70
2017-07-21T01:23:40.074Z,20.60
2017-07-21T01:26:08.964Z,20.60
2017-07-21T01:28:37.863Z,20.50
2017-07-21T01:31:06.593Z,20.40
2017-07-21T01:33:35.596Z,20.40
2017-07-21T01:36:04.684Z,20.40
2017-07-21T01:38:32.701Z,20.40
2017-07-21T01:41:01.481Z,20.30
2017-07-21T01:43:30.128Z,20.30
2017-07-21T01:45:58.833Z,20.20
2017-07-21T01:48:27.140Z,20.20
2017-07-21T01:50:56.188Z,20.20
2017-07-21T01:53:25.802Z,20.10
2017-07-21T01:55:54.518Z,20.10
2017-07-21T01:58:23.127Z,20.10
2017-07-21T02:00:51.863Z,20.00
2017-07-21T02:03:21.166Z,20.00
2017-07-21T02:05:50.435Z,20.00
2017-07-21T02:08:19.175Z,20.00
2017-07-21T02:10:47.909Z,19.90
2017-07-21T02:13:16.554Z,19.90
2017-07-21T02:15:45.666Z,19.80
2017-07-21T02:18:14.377Z,19.80
2017-07-21T02:20:42.977Z,19.70
2017-07-21T02:23:10.761Z,19.70
2017-07-21T02:25:39.520Z,19.70
2017-07-21T02:28:07.928Z,19.70
2017-07-21T02:30:37.213Z,19.60
2017-07-21T02:33:05.021Z,19.60
2017-07-21T02:35:33.868Z,19.60
2017-07-21T02:38:02.580Z,19.50
2017-07-21T02:40:31.250Z,19.50
2017-07-21T02:42:59.273Z,19.40
2017-07-21T02:45:28.070Z,19.40
2017-07-21T02:47:58.078Z,19.40
2017-07-21T02:50:27.074Z,19.40
2017-07-21T02:52:55.786Z,19.30
2017-07-21T02:55:25.487Z,19.30
2017-07-21T02:57:54.422Z,19.30
2017-07-21T03:00:23.585Z,19.30
2017-07-21T03:02:52.202Z,19.30
2017-07-21T03:05:21.115Z,19.30
2017-07-21T03:07:49.421Z,19.30
2017-07-21T03:10:18.555Z,19.30
2017-07-21T03:12:47.894Z,19.30
2017-07-21T03:15:16.797Z,19.30
2017-07-21T03:17:45.760Z,19.20
2017-07-21T03:20:14.602Z,19.20
2017-07-21T03:22:54.820Z,19.10
2017-07-21T03:25:24.547Z,19.00
2017-07-21T03:27:53.049Z,19.00
2017-07-21T03:30:22.479Z,19.00
2017-07-21T03:32:50.708Z,18.90
2017-07-21T03:35:19.094Z,18.90
2017-07-21T03:37:48.319Z,18.80
2017-07-21T03:40:16.933Z,18.80
2017-07-21T03:42:46.338Z,18.70
2017-07-21T03:45:15.910Z,18.70
2017-07-21T03:47:44.022Z,18.70
2017-07-21T03:50:13.126Z,18.70
2017-07-21T03:52:42.945Z,18.60
2017-07-21T03:55:10.975Z,18.60
2017-07-21T03:57:39.237Z,18.60
2017-07-21T04:00:08.046Z,18.60
2017-07-21T04:02:36.770Z,18.60
2017-07-21T04:05:05.961Z,18.60
2017-07-21T04:07:34.333Z,18.60
2017-07-21T04:10:03.366Z,18.60
2017-07-21T04:12:31.588Z,18.60
2017-07-21T04:15:01.104Z,18.50
2017-07-21T04:17:29.685Z,18.60
2017-07-21T04:19:58.834Z,18.50
2017-07-21T04:22:26.777Z,18.50
2017-07-21T04:24:55.928Z,18.50
2017-07-21T04:27:24.030Z,18.50
2017-07-21T04:29:52.110Z,18.50
2017-07-21T04:32:20.622Z,18.50
2017-07-21T04:34:49.034Z,18.50
2017-07-21T04:37:17.498Z,18.50
2017-07-21T04:39:45.982Z,18.50
2017-07-21T04:42:14.232Z,18.40
2017-07-21T04:44:42.926Z,18.50
2017-07-21T04:47:11.897Z,18.50
2017-07-21T04:49:40.751Z,18.50
2017-07-21T04:52:09.797Z,18.50
2017-07-21T04:54:38.400Z,18.40
2017-07-21T04:57:07.452Z,18.40
2017-07-21T04:59:36.469Z,18.40
2017-07-21T05:02:06.806Z,18.40
2017-07-21T05:04:35.214Z,18.40
2017-07-21T05:07:03.821Z,18.50
2017-07-21T05:09:32.324Z,18.60
2017-07-21T05:12:00.766Z,18.60
2017-07-21T05:14:29.248Z,18.60
2017-07-21T05:16:58.096Z,18.70
2017-07-21T05:19:27.292Z,18.70
2017-07-21T05:21:55.767Z,18.80
2017-07-21T05:24:24.638Z,18.80
2017-07-21T05:26:53.142Z,18.90
2017-07-21T05:29:21.800Z,19.00
2017-07-21T05:31:50.483Z,19.00
2017-07-21T05:34:18.780Z,19.10
2017-07-21T05:36:47.494Z,19.20
2017-07-21T05:39:16.670Z,19.30
2017-07-21T05:41:45.201Z,19.30
2017-07-21T05:44:14.380Z,19.30
2017-07-21T05:46:42.873Z,19.40
2017-07-21T05:49:11.521Z,19.50
2017-07-21T05:51:40.070Z,19.50
2017-07-21T05:54:08.882Z,19.60
2017-07-21T05:56:37.773Z,19.70
2017-07-21T05:59:06.390Z,19.80
2017-07-21T06:01:35.567Z,19.70
2017-07-21T06:04:04.386Z,19.80
2017-07-21T06:06:32.952Z,19.90
2017-07-21T06:09:01.882Z,20.00
2017-07-21T06:11:30.638Z,20.00
2017-07-21T06:13:59.830Z,20.10
2017-07-21T06:16:28.325Z,20.20
2017-07-21T06:18:57.420Z,20.20
2017-07-21T06:21:26.648Z,20.30
2017-07-21T06:23:54.903Z,20.30
2017-07-21T06:26:23.926Z,20.40
2017-07-21T06:28:52.766Z,20.30
2017-07-21T06:31:21.210Z,20.40
2017-07-21T06:33:49.271Z,20.40
2017-07-21T06:36:17.171Z,20.50
2017-07-21T06:38:46.141Z,20.50
2017-07-21T06:41:14.529Z,20.50
2017-07-21T06:43:43.462Z,20.60
2017-07-21T06:46:11.741Z,20.70
2017-07-21T06:48:40.184Z,20.80
2017-07-21T06:51:08.847Z,20.80
2017-07-21T06:53:37.072Z,20.80
2017-07-21T06:56:06.030Z,20.90
2017-07-21T06:58:34.159Z,20.90
2017-07-21T07:01:02.716Z,21.10
2017-07-21T07:03:30.893Z,21.10
2017-07-21T07:06:00.607Z,21.30
2017-07-21T07:08:29.204Z,21.30
2017-07-21T07:10:58.184Z,21.40
2017-07-21T07:13:26.164Z,21.60
2017-07-21T07:15:55.710Z,21.70
2017-07-21T07:18:24.941Z,21.90
2017-07-21T07:20:53.651Z,21.90
2017-07-21T07:23:22.312Z,22.00
2017-07-21T07:25:51.259Z,22.10
2017-07-21T07:28:18.955Z,22.10
2017-07-21T07:30:47.052Z,22.20
2017-07-21T07:33:16.530Z,22.30
2017-07-21T07:35:45.062Z,22.50
2017-07-21T07:38:13.494Z,22.60
2017-07-21T07:40:42.171Z,22.60
2017-07-21T07:43:10.534Z,22.60
2017-07-21T07:45:39.004Z,22.70
2017-07-21T07:48:07.572Z,22.80
2017-07-21T07:50:36.676Z,22.80
2017-07-21T07:53:04.975Z,22.90
2017-07-21T07:55:33.793Z,22.90
2017-07-21T07:58:02.054Z,23.00
2017-07-21T08:00:31.002Z,23.20
2017-07-21T08:02:59.808Z,23.10
2017-07-21T08:05:28.110Z,23.20
2017-07-21T08:07:57.080Z,23.30
2017-07-21T08:10:25.727Z,23.30
2017-07-21T08:12:53.914Z,23.30
2017-07-21T08:15:22.880Z,23.20
2017-07-21T08:17:52.687Z,23.30
2017-07-21T08:20:21.701Z,23.40
2017-07-21T08:22:50.786Z,23.40
2017-07-21T08:25:19.229Z,23.50
2017-07-21T08:27:48.075Z,23.50
2017-07-21T08:30:16.568Z,23.70
2017-07-21T08:32:45.578Z,23.70
2017-07-21T08:35:14.172Z,23.70
2017-07-21T08:37:42.902Z,23.80
2017-07-21T08:40:12.898Z,23.90
2017-07-21T08:42:41.164Z,23.90
2017-07-21T08:45:10.612Z,24.00
2017-07-21T08:47:39.530Z,24.30
2017-07-21T08:50:08.309Z,24.30
2017-07-21T08:52:37.413Z,24.40
2017-07-21T08:55:05.951Z,24.50
2017-07-21T08:57:34.145Z,24.50
2017-07-21T09:00:02.711Z,24.60
2017-07-21T09:02:31.651Z,24.70
2017-07-21T09:05:00.577Z,24.80
2017-07-21T09:07:29.139Z,25.00
2017-07-21T09:09:57.885Z,25.00
2017-07-21T09:12:27.006Z,25.10
2017-07-21T09:14:56.236Z,25.20
2017-07-21T09:17:24.771Z,25.30
2017-07-21T09:19:53.981Z,25.30
2017-07-21T09:22:22.955Z,25.40
2017-07-21T09:24:50.984Z,25.60
2017-07-21T09:27:19.460Z,25.90
2017-07-21T09:29:48.288Z,26.10
2017-07-21T09:32:17.103Z,26.60
2017-07-21T09:34:45.540Z,26.60
2017-07-21T09:37:14.911Z,27.00
2017-07-21T09:39:42.988Z,27.00
2017-07-21T09:42:12.172Z,27.40
2017-07-21T09:44:40.941Z,27.70
2017-07-21T09:47:10.114Z,28.30
2017-07-21T09:49:39.510Z,28.30
2017-07-21T09:52:07.977Z,28.70
2017-07-21T09:54:36.740Z,29.40
2017-07-21T09:57:04.858Z,29.40
2017-07-21T09:59:33.166Z,29.60
2017-07-21T10:02:02.214Z,30.40
2017-07-21T10:04:30.996Z,31.00
2017-07-21T10:06:59.748Z,31.00
2017-07-21T10:09:28.895Z,31.60
2017-07-21T10:11:57.280Z,32.20
2017-07-21T10:14:26.538Z,32.60
2017-07-21T10:16:54.916Z,32.60
2017-07-21T10:19:24.520Z,32.70
2017-07-21T10:21:53.211Z,32.50
2017-07-21T10:24:22.440Z,32.10
2017-07-21T10:26:51.429Z,31.30
2017-07-21T10:29:20.691Z,31.30
2017-07-21T10:31:49.351Z,31.00
2017-07-21T10:34:17.533Z,30.50
2017-07-21T10:36:45.490Z,30.10
2017-07-21T10:39:14.933Z,29.20
2017-07-21T10:41:43.580Z,29.20
2017-07-21T10:44:12.380Z,28.60
2017-07-21T10:46:41.626Z,28.40
2017-07-21T10:49:09.953Z,28.40
2017-07-21T10:51:39.421Z,28.10
2017-07-21T10:54:08.382Z,28.10
2017-07-21T10:56:36.519Z,28.00
2017-07-21T10:59:05.619Z,27.90
2017-07-21T11:01:34.365Z,27.60
2017-07-21T11:04:02.141Z,27.60
2017-07-21T11:06:30.601Z,27.50
2017-07-21T11:08:59.498Z,27.50
2017-07-21T11:11:27.455Z,27.40
2017-07-21T11:13:55.479Z,27.30
2017-07-21T11:16:24.622Z,27.10
2017-07-21T11:18:53.478Z,27.00
2017-07-21T11:21:21.593Z,27.00
2017-07-21T11:23:50.020Z,27.00
2017-07-21T11:26:19.025Z,27.00
2017-07-21T11:28:47.465Z,27.00
2017-07-21T11:31:16.062Z,26.90
2017-07-21T11:33:44.933Z,26.90
2017-07-21T11:36:13.688Z,26.90
2017-07-21T11:38:42.035Z,26.90
2017-07-21T11:41:10.127Z,26.90
2017-07-21T11:43:38.492Z,27.00
2017-07-21T11:46:07.216Z,26.90
2017-07-21T11:48:35.899Z,27.00
2017-07-21T11:51:04.459Z,27.00
2017-07-21T11:53:33.847Z,27.00
2017-07-21T11:56:02.817Z,27.10
2017-07-21T11:58:30.859Z,27.10
2017-07-21T12:00:59.842Z,27.10
2017-07-21T12:03:28.593Z,27.20
2017-07-21T12:05:57.258Z,27.20
2017-07-21T12:08:26.324Z,27.20
2017-07-21T12:10:54.797Z,27.20
2017-07-21T12:13:23.576Z,27.20
2017-07-21T12:15:53.220Z,27.30
2017-07-21T12:18:22.020Z,27.30
2017-07-21T12:20:50.923Z,27.30
2017-07-21T12:23:19.466Z,27.40
2017-07-21T12:25:48.490Z,27.40
2017-07-21T12:28:17.014Z,27.50
2017-07-21T12:30:45.451Z,27.50
2017-07-21T12:33:14.279Z,27.50
2017-07-21T12:35:42.784Z,27.60
2017-07-21T12:38:11.679Z,27.60
2017-07-21T12:40:40.968Z,27.50
2017-07-21T12:43:09.347Z,27.50
2017-07-21T12:45:38.037Z,27.40
2017-07-21T12:48:06.855Z,27.50
2017-07-21T12:50:35.435Z,27.50
2017-07-21T12:53:05.648Z,27.60
2017-07-21T12:55:34.102Z,27.70
2017-07-21T12:58:02.330Z,27.80
2017-07-21T13:00:31.280Z,27.90
2017-07-21T13:02:59.714Z,27.90
2017-07-21T13:05:28.176Z,28.00
2017-07-21T13:07:56.511Z,28.10
2017-07-21T13:10:25.278Z,28.10
2017-07-21T13:12:53.816Z,28.10
2017-07-21T13:15:22.730Z,28.20
2017-07-21T13:17:51.072Z,28.20
2017-07-21T13:20:19.211Z,28.20
2017-07-21T13:22:48.454Z,28.30
2017-07-21T13:25:17.084Z,28.30
2017-07-21T13:27:46.020Z,28.50
2017-07-21T13:30:17.833Z,28.60
2017-07-21T13:32:46.315Z,28.60
2017-07-21T13:35:14.696Z,28.60
2017-07-21T13:37:44.796Z,28.70
2017-07-21T13:40:13.617Z,28.70
2017-07-21T13:42:41.846Z,28.80
2017-07-21T13:45:10.894Z,28.80
2017-07-21T13:47:39.433Z,28.80
2017-07-21T13:50:09.407Z,28.90
2017-07-21T13:52:38.061Z,28.90
2017-07-21T13:55:06.681Z,28.90
2017-07-21T13:57:35.402Z,28.90
2017-07-21T14:00:04.661Z,28.90
2017-07-21T14:02:33.489Z,28.90
2017-07-21T14:05:01.729Z,28.80
2017-07-21T14:07:30.925Z,28.80
2017-07-21T14:09:59.337Z,28.90
2017-07-21T14:12:27.477Z,28.90
2017-07-21T14:14:55.959Z,29.00
2017-07-21T14:17:24.414Z,29.00
2017-07-21T14:19:52.990Z,29.00
2017-07-21T14:22:22.174Z,29.00
2017-07-21T14:24:51.457Z,28.90
2017-07-21T14:27:20.763Z,29.00
2017-07-21T14:29:49.376Z,28.90
2017-07-21T14:32:17.689Z,29.00
2017-07-21T14:34:46.694Z,28.90
2017-07-21T14:37:15.775Z,28.80
2017-07-21T14:39:43.878Z,28.80
2017-07-21T14:42:12.703Z,28.70
2017-07-21T14:44:41.562Z,28.70
2017-07-21T14:47:10.525Z,28.60
2017-07-21T14:49:38.775Z,28.60
2017-07-21T14:52:07.623Z,28.60
2017-07-21T14:54:36.069Z,28.60
2017-07-21T14:57:04.421Z,28.60
2017-07-21T14:59:33.227Z,28.60
2017-07-21T15:02:01.890Z,28.60
2017-07-21T15:04:30.117Z,28.60
2017-07-21T15:06:59.938Z,28.80
2017-07-21T15:09:28.413Z,28.80
2017-07-21T15:11:57.093Z,28.80
2017-07-21T15:14:25.441Z,28.90
2017-07-21T15:16:54.706Z,29.00
2017-07-21T15:19:23.417Z,29.10
2017-07-21T15:21:51.995Z,29.20
2017-07-21T15:24:20.950Z,29.30
2017-07-21T15:26:49.033Z,29.30
2017-07-21T15:29:18.352Z,29.40
2017-07-21T15:31:47.607Z,29.40
2017-07-21T15:34:15.908Z,29.30
2017-07-21T15:36:43.774Z,29.40
2017-07-21T15:39:12.425Z,29.40
2017-07-21T15:41:41.159Z,29.40
2017-07-21T15:44:09.987Z,29.40
2017-07-21T15:46:38.612Z,29.30
2017-07-21T15:49:07.802Z,29.30
2017-07-21T15:51:37.067Z,29.30
2017-07-21T15:54:05.558Z,29.30
2017-07-21T15:56:34.552Z,29.30
2017-07-21T15:59:02.815Z,29.30
2017-07-21T16:01:31.089Z,29.30
2017-07-21T16:03:59.232Z,29.30
2017-07-21T16:06:27.212Z,29.30
2017-07-21T16:08:55.358Z,29.30
2017-07-21T16:11:23.786Z,29.30
2017-07-21T16:13:52.381Z,29.30
2017-07-21T16:16:20.995Z,29.30
2017-07-21T16:18:49.225Z,29.30
2017-07-21T16:21:18.325Z,29.30
2017-07-21T16:23:47.362Z,29.30
2017-07-21T16:26:15.811Z,29.30
2017-07-21T16:28:45.426Z,29.30
2017-07-21T16:31:14.956Z,29.20
2017-07-21T16:33:43.172Z,29.20
2017-07-21T16:36:11.875Z,29.20
2017-07-21T16:38:40.420Z,29.20
2017-07-21T16:41:08.937Z,29.10
2017-07-21T16:43:37.509Z,29.10
2017-07-21T16:46:07.099Z,29.10
2017-07-21T16:48:36.092Z,29.10
2017-07-21T16:51:05.841Z,29.10
2017-07-21T16:53:35.042Z,29.10
2017-07-21T16:56:04.502Z,29.10
2017-07-21T16:58:33.468Z,29.10
2017-07-21T17:01:02.605Z,29.10
2017-07-21T17:03:30.606Z,29.10
2017-07-21T17:05:59.957Z,29.00
2017-07-21T17:08:28.104Z,29.00
2017-07-21T17:10:56.633Z,28.90
2017-07-21T17:13:25.143Z,28.90
2017-07-21T17:15:53.549Z,28.80
2017-07-21T17:18:22.239Z,28.70
2017-07-21T17:20:51.087Z,28.70
2017-07-21T17:23:20.415Z,28.70
2017-07-21T17:25:48.570Z,28.60
2017-07-21T17:28:17.276Z,28.60
2017-07-21T17:30:45.139Z,28.60
2017-07-21T17:33:13.110Z,28.50
2017-07-21T17:35:41.731Z,28.50
2017-07-21T17:38:10.320Z,28.50
2017-07-21T17:40:39.978Z,28.50
2017-07-21T17:43:08.513Z,28.40
2017-07-21T17:45:36.766Z,28.40
2017-07-21T17:48:06.657Z,28.40
2017-07-21T17:50:35.720Z,28.40
2017-07-21T17:53:03.909Z,28.40
2017-07-21T17:55:32.246Z,28.30
2017-07-21T17:58:00.578Z,28.30
2017-07-21T18:00:29.389Z,28.30
2017-07-21T18:02:58.086Z,28.30
2017-07-21T18:05:27.917Z,28.20
2017-07-21T18:07:56.456Z,28.20
2017-07-21T18:10:24.624Z,28.20
2017-07-21T18:12:53.317Z,28.20
2017-07-21T18:15:21.702Z,28.10
2017-07-21T18:17:50.045Z,28.00
2017-07-21T18:20:18.877Z,28.00
2017-07-21T18:22:47.954Z,28.00
2017-07-21T18:25:16.252Z,28.00
2017-07-21T18:27:45.219Z,28.00
2017-07-21T18:30:13.364Z,27.90
2017-07-21T18:32:41.772Z,27.90
2017-07-21T18:35:11.606Z,27.90
2017-07-21T18:37:39.985Z,27.90
2017-07-21T18:40:08.078Z,27.90
2017-07-21T18:42:36.610Z,27.90
2017-07-21T18:45:05.013Z,27.80
2017-07-21T18:47:33.148Z,27.80
2017-07-21T18:50:02.125Z,27.80
2017-07-21T18:52:30.604Z,27.70
2017-07-21T18:54:59.103Z,27.70
2017-07-21T18:57:27.686Z,27.70
2017-07-21T18:59:56.653Z,27.60
2017-07-21T19:02:24.980Z,27.60
2017-07-21T19:04:54.026Z,27.60
2017-07-21T19:07:22.253Z,27.50
2017-07-21T19:09:51.477Z,27.40
2017-07-21T19:12:20.649Z,27.40
2017-07-21T19:14:48.850Z,27.40
2017-07-21T19:17:17.656Z,27.30
2017-07-21T19:19:46.224Z,27.20
2017-07-21T19:22:15.012Z,27.20
2017-07-21T19:24:43.466Z,27.10
2017-07-21T19:27:11.513Z,27.10
2017-07-21T19:29:39.580Z,27.10
2017-07-21T19:32:08.046Z,27.00
2017-07-21T19:34:36.660Z,26.90
2017-07-21T19:37:05.254Z,26.90
2017-07-21T19:39:33.907Z,26.80
2017-07-21T19:42:02.119Z,26.80
2017-07-21T19:44:30.493Z,26.80
2017-07-21T19:46:58.988Z,26.70
2017-07-21T19:49:27.269Z,26.70
2017-07-21T19:51:55.311Z,26.70
2017-07-21T19:54:23.747Z,26.60
2017-07-21T19:56:52.046Z,26.60
2017-07-21T19:59:20.596Z,26.60
2017-07-21T20:01:48.538Z,26.50
2017-07-21T20:04:18.025Z,26.50
2017-07-21T20:06:46.143Z,26.50
2017-07-21T20:09:14.951Z,26.40
2017-07-21T20:11:43.681Z,26.40
2017-07-21T20:14:12.155Z,26.40
2017-07-21T20:16:40.629Z,26.40
2017-07-21T20:19:09.084Z,26.30
2017-07-21T20:21:37.502Z,26.30
2017-07-21T20:24:06.638Z,26.30
2017-07-21T20:26:34.997Z,26.30
2017-07-21T20:29:03.278Z,26.30
2017-07-21T20:31:32.150Z,26.20
2017-07-21T20:34:00.505Z,26.20
2017-07-21T20:39:33.240Z,26.20
2017-07-21T20:42:01.527Z,26.10
2017-07-21T20:44:30.181Z,26.10
2017-07-21T20:46:58.304Z,26.10
2017-07-21T20:49:26.939Z,26.00
2017-07-21T20:51:55.959Z,26.00
2017-07-21T20:54:25.037Z,26.00
2017-07-21T20:56:53.466Z,25.90
2017-07-21T20:59:22.115Z,25.90
2017-07-21T21:01:50.592Z,25.90
2017-07-21T21:04:19.062Z,25.90
2017-07-21T21:06:47.738Z,25.80
2017-07-21T21:09:16.389Z,25.80
2017-07-21T21:11:45.403Z,25.80
2017-07-21T21:14:13.448Z,25.80
2017-07-21T21:16:42.751Z,25.70
2017-07-21T21:19:11.537Z,25.70
2017-07-21T21:21:39.952Z,25.70
2017-07-21T21:24:08.560Z,25.60
2017-07-21T21:26:36.924Z,25.60
2017-07-21T21:29:04.994Z,25.60
2017-07-21T21:31:34.185Z,25.60
2017-07-21T21:34:02.176Z,25.60
2017-07-21T21:36:30.823Z,25.60
2017-07-21T21:38:59.493Z,25.50
2017-07-21T21:41:27.639Z,25.50
2017-07-21T21:43:56.004Z,25.50
2017-07-21T21:46:24.789Z,25.50
2017-07-21T21:48:53.387Z,25.50
2017-07-21T21:51:22.051Z,25.50
2017-07-21T21:53:52.315Z,25.50
2017-07-21T21:56:20.946Z,25.40
2017-07-21T21:58:52.584Z,25.40
2017-07-21T22:01:21.274Z,25.40
2017-07-21T22:03:50.070Z,25.40
2017-07-21T22:06:18.450Z,25.50
2017-07-21T22:08:48.529Z,25.50
2017-07-21T22:11:16.824Z,25.50
2017-07-21T22:13:45.083Z,25.50
2017-07-21T22:16:14.570Z,25.40
2017-07-21T22:18:43.338Z,25.40
2017-07-21T22:21:11.545Z,25.40
2017-07-21T22:23:40.459Z,25.40
2017-07-21T22:26:08.477Z,25.30
2017-07-21T22:28:37.173Z,25.20
2017-07-21T22:31:05.333Z,25.00
2017-07-21T22:33:34.536Z,24.60
2017-07-21T22:36:03.586Z,24.60
2017-07-21T22:38:32.237Z,24.10
2017-07-21T22:41:01.001Z,24.10
2017-07-21T22:43:28.935Z,23.80
2017-07-21T22:45:57.507Z,23.60
2017-07-21T22:48:25.833Z,23.30
2017-07-21T22:50:54.065Z,23.30
2017-07-21T22:53:22.753Z,23.00
2017-07-21T22:55:51.310Z,22.90
2017-07-21T22:58:20.695Z,22.80
2017-07-21T23:00:49.461Z,22.80
2017-07-21T23:03:17.637Z,22.70
2017-07-21T23:05:46.578Z,22.70
2017-07-21T23:08:15.293Z,22.70
2017-07-21T23:10:43.932Z,22.70
2017-07-21T23:13:12.049Z,22.70
2017-07-21T23:15:40.069Z,22.70
2017-07-21T23:18:08.697Z,22.70
2017-07-21T23:20:36.889Z,22.70
2017-07-21T23:23:06.099Z,22.70
2017-07-21T23:25:34.471Z,22.70
2017-07-21T23:28:02.655Z,22.70
2017-07-21T23:30:31.568Z,22.70
2017-07-21T23:33:00.238Z,22.70
2017-07-21T23:35:29.298Z,22.70
2017-07-21T23:37:58.608Z,22.70
2017-07-21T23:40:27.005Z,22.70
2017-07-21T23:42:54.890Z,22.70
2017-07-21T23:45:23.609Z,22.60
2017-07-21T23:47:52.315Z,22.60
2017-07-21T23:50:21.589Z,22.60
2017-07-21T23:52:50.532Z,22.60
2017-07-21T23:55:19.164Z,22.60
2017-07-21T23:57:47.324Z,22.60
